createdAt,value
2023-04-24T00:02:14.855Z,62.92
2023-04-24T00:04:47.015Z,63.00
2023-04-24T00:07:15.431Z,63.15
2023-04-24T00:09:44.997Z,63.17
2023-04-24T00:12:13.437Z,63.00
2023-04-24T00:14:41.753Z,62.93
2023-04-24T00:17:09.928Z,62.95
2023-04-24T00:19:38.537Z,63.04
2023-04-24T00:22:06.665Z,62.91
2023-04-24T00:24:34.752Z,62.91
2023-04-24T00:27:03.646Z,62.99
2023-04-24T00:29:31.847Z,63.03
2023-04-24T00:32:00.068Z,63.08
2023-04-24T00:34:28.335Z,63.21
2023-04-24T00:36:56.399Z,63.20
2023-04-24T00:39:24.550Z,63.23
2023-04-24T00:41:53.732Z,63.19
2023-04-24T00:44:22.086Z,63.30
2023-04-24T00:46:55.661Z,63.36
2023-04-24T00:49:23.888Z,63.44
2023-04-24T00:51:52.367Z,63.54
2023-04-24T00:54:20.684Z,63.65
2023-04-24T00:56:49.484Z,63.75
2023-04-24T00:59:18.821Z,63.84
2023-04-24T01:01:48.044Z,63.84
2023-04-24T01:04:19.077Z,63.87
2023-04-24T01:06:47.557Z,63.92
2023-04-24T01:09:16.305Z,63.88
2023-04-24T01:11:44.544Z,63.94
2023-04-24T01:14:13.807Z,64.09
2023-04-24T01:16:43.155Z,64.19
2023-04-24T01:19:13.637Z,64.32
2023-04-24T01:21:44.392Z,64.40
2023-04-24T01:24:13.174Z,64.50
2023-04-24T01:26:41.417Z,64.57
2023-04-24T01:29:09.597Z,64.69
2023-04-24T01:31:38.234Z,64.74
2023-04-24T01:34:07.594Z,64.83
2023-04-24T01:36:36.404Z,64.91
2023-04-24T01:39:04.795Z,64.86
2023-04-24T01:41:33.744Z,64.93
2023-04-24T01:44:02.457Z,65.02
2023-04-24T01:46:31.758Z,65.06
2023-04-24T01:49:01.914Z,65.10
2023-04-24T01:51:30.117Z,65.29
2023-04-24T01:53:58.677Z,65.32
2023-04-24T01:56:29.764Z,65.25
2023-04-24T01:58:58.741Z,65.29
2023-04-24T02:01:27.058Z,65.34
2023-04-24T02:03:55.342Z,65.51
2023-04-24T02:06:23.553Z,65.54
2023-04-24T02:08:51.660Z,65.61
2023-04-24T02:11:19.897Z,65.62
2023-04-24T02:13:48.085Z,65.67
2023-04-24T02:16:16.289Z,65.78
2023-04-24T02:18:44.841Z,65.78
2023-04-24T02:21:12.942Z,65.89
2023-04-24T02:23:41.194Z,65.98
2023-04-24T02:26:09.600Z,66.01
2023-04-24T02:28:37.690Z,66.04
2023-04-24T02:31:07.385Z,66.13
2023-04-24T02:33:36.549Z,66.10
2023-04-24T02:36:04.918Z,66.13
2023-04-24T02:38:32.977Z,66.22
2023-04-24T02:41:01.886Z,66.37
2023-04-24T02:43:30.065Z,66.46
2023-04-24T02:45:58.184Z,66.46
2023-04-24T02:48:26.512Z,66.62
2023-04-24T02:50:54.758Z,66.72
2023-04-24T02:53:23.899Z,66.72
2023-04-24T02:55:52.010Z,66.84
2023-04-24T02:58:21.147Z,66.84
2023-04-24T03:00:49.327Z,66.89
2023-04-24T03:03:17.570Z,66.97
2023-04-24T03:05:45.844Z,67.01
2023-04-24T03:08:15.618Z,67.05
2023-04-24T03:10:46.869Z,67.00
2023-04-24T03:13:17.943Z,66.99
2023-04-24T03:15:47.616Z,66.94
2023-04-24T03:18:15.936Z,66.95
2023-04-24T03:20:47.625Z,66.94
2023-04-24T03:23:16.276Z,67.02
2023-04-24T03:25:45.140Z,67.03
2023-04-24T03:28:13.927Z,67.01
2023-04-24T03:30:50.371Z,67.00
2023-04-24T03:33:19.611Z,66.94
2023-04-24T03:35:56.641Z,66.88
2023-04-24T03:38:25.004Z,66.90
2023-04-24T03:41:00.351Z,66.85
2023-04-24T03:43:39.275Z,66.83
2023-04-24T03:46:10.425Z,66.76
2023-04-24T03:48:42.289Z,66.77
2023-04-24T03:51:10.907Z,66.81
2023-04-24T03:53:40.748Z,66.88
2023-04-24T03:56:09.241Z,66.95
2023-04-24T03:58:38.954Z,66.98
2023-04-24T04:01:07.560Z,67.11
2023-04-24T04:03:51.066Z,67.20
2023-04-24T04:06:22.663Z,67.35
2023-04-24T04:08:52.015Z,67.33
2023-04-24T04:11:21.049Z,67.37
2023-04-24T04:13:49.232Z,67.42
2023-04-24T04:16:20.129Z,67.58
2023-04-24T04:18:49.796Z,67.53
2023-04-24T04:21:18.121Z,67.70
2023-04-24T04:23:46.528Z,67.77
2023-04-24T04:26:36.591Z,67.78
2023-04-24T04:29:10.180Z,67.97
2023-04-24T04:31:42.093Z,68.04
2023-04-24T04:34:13.845Z,67.98
2023-04-24T04:36:43.056Z,68.01
2023-04-24T04:39:34.087Z,67.96
2023-04-24T04:42:08.820Z,67.88
2023-04-24T04:44:41.001Z,67.80
2023-04-24T04:47:11.939Z,67.96
2023-04-24T04:49:40.435Z,67.77
2023-04-24T04:52:12.703Z,67.63
2023-04-24T04:54:41.220Z,67.78
2023-04-24T04:57:10.091Z,67.60
2023-04-24T04:59:38.481Z,67.61
2023-04-24T05:02:10.594Z,67.55
2023-04-24T05:04:39.897Z,67.55
2023-04-24T05:07:08.498Z,67.44
2023-04-24T05:09:39.549Z,67.52
2023-04-24T05:12:08.693Z,67.49
2023-04-24T05:14:41.624Z,67.46
2023-04-24T05:17:11.166Z,67.36
2023-04-24T05:19:39.820Z,67.37
2023-04-24T05:22:10.739Z,67.41
2023-04-24T05:24:43.390Z,67.50
2023-04-24T05:27:20.493Z,67.46
2023-04-24T05:29:50.598Z,67.54
2023-04-24T05:32:19.043Z,67.48
2023-04-24T05:34:47.714Z,67.42
2023-04-24T05:37:15.856Z,67.55
2023-04-24T05:39:44.282Z,67.46
2023-04-24T05:42:12.856Z,67.36
2023-04-24T05:44:41.244Z,67.38
2023-04-24T05:47:09.297Z,67.43
2023-04-24T05:49:37.433Z,67.41
2023-04-24T05:52:07.588Z,67.32
2023-04-24T05:54:36.261Z,67.27
2023-04-24T05:57:08.531Z,67.28
2023-04-24T05:59:50.135Z,67.31
2023-04-24T06:02:20.847Z,67.32
2023-04-24T06:04:49.525Z,67.28
2023-04-24T06:07:19.248Z,67.31
2023-04-24T06:09:48.318Z,67.33
2023-04-24T06:12:17.754Z,67.41
2023-04-24T06:14:56.604Z,67.47
2023-04-24T06:17:44.925Z,67.49
2023-04-24T06:20:14.044Z,67.50
2023-04-24T06:22:42.091Z,67.49
2023-04-24T06:25:12.113Z,67.46
2023-04-24T06:27:40.551Z,67.51
2023-04-24T06:30:10.355Z,67.50
2023-04-24T06:32:38.493Z,67.43
2023-04-24T06:35:09.173Z,67.28
2023-04-24T06:37:37.676Z,67.25
2023-04-24T06:40:08.332Z,67.15
2023-04-24T06:42:37.607Z,67.00
2023-04-24T06:45:06.339Z,66.91
2023-04-24T06:47:34.441Z,66.89
2023-04-24T06:50:02.635Z,66.91
2023-04-24T06:52:33.908Z,66.94
2023-04-24T06:55:06.079Z,67.00
2023-04-24T06:57:34.129Z,67.02
2023-04-24T07:00:02.529Z,67.16
2023-04-24T07:02:31.111Z,67.04
2023-04-24T07:04:59.222Z,67.06
2023-04-24T07:07:27.640Z,66.96
2023-04-24T07:09:57.458Z,67.10
2023-04-24T07:12:25.496Z,67.17
2023-04-24T07:14:53.556Z,67.21
2023-04-24T07:17:22.158Z,67.24
2023-04-24T07:19:51.070Z,67.37
2023-04-24T07:22:19.273Z,67.60
2023-04-24T07:24:47.580Z,67.82
2023-04-24T07:27:16.356Z,67.99
2023-04-24T07:29:44.886Z,68.15
2023-04-24T07:32:13.541Z,68.32
2023-04-24T07:34:41.793Z,68.55
2023-04-24T07:37:10.024Z,68.78
2023-04-24T07:39:38.132Z,68.90
2023-04-24T07:42:06.325Z,69.04
2023-04-24T07:44:34.457Z,69.16
2023-04-24T07:47:02.748Z,69.24
2023-04-24T07:49:30.880Z,69.27
2023-04-24T07:52:01.533Z,69.26
2023-04-24T07:54:30.533Z,69.28
2023-04-24T07:56:58.662Z,69.25
2023-04-24T07:59:26.842Z,69.23
2023-04-24T08:01:55.817Z,69.32
2023-04-24T08:04:24.165Z,69.39
2023-04-24T08:06:52.659Z,69.38
2023-04-24T08:09:21.411Z,69.39
2023-04-24T08:11:49.718Z,69.46
2023-04-24T08:14:17.858Z,69.44
2023-04-24T08:16:46.433Z,69.49
2023-04-24T08:19:14.557Z,69.47
2023-04-24T08:21:42.582Z,69.52
2023-04-24T08:24:10.828Z,69.60
2023-04-24T08:26:39.045Z,69.70
2023-04-24T08:29:07.967Z,69.83
2023-04-24T08:31:36.982Z,69.95
2023-04-24T08:34:05.288Z,70.05
2023-04-24T08:36:45.961Z,70.09
2023-04-24T08:39:16.497Z,70.02
2023-04-24T08:41:46.306Z,69.98
2023-04-24T08:44:16.843Z,69.97
2023-04-24T08:46:48.819Z,69.98
2023-04-24T08:49:17.758Z,70.08
2023-04-24T08:51:48.668Z,70.12
2023-04-24T08:54:17.902Z,70.15
2023-04-24T08:56:49.290Z,70.29
2023-04-24T08:59:17.791Z,70.46
2023-04-24T09:01:47.835Z,70.73
2023-04-24T09:04:19.298Z,70.84
2023-04-24T09:06:50.047Z,70.97
2023-04-24T09:09:19.446Z,71.11
2023-04-24T09:11:48.104Z,71.25
2023-04-24T09:14:17.133Z,71.38
2023-04-24T09:16:45.286Z,71.36
2023-04-24T09:19:13.623Z,71.39
2023-04-24T09:21:44.875Z,71.43
2023-04-24T09:24:19.537Z,71.52
2023-04-24T09:26:48.532Z,71.63
2023-04-24T09:29:17.980Z,71.55
2023-04-24T09:31:47.154Z,71.54
2023-04-24T09:34:15.695Z,71.58
2023-04-24T09:36:44.127Z,71.46
2023-04-24T09:39:16.912Z,71.53
2023-04-24T09:41:46.615Z,71.53
2023-04-24T09:44:27.130Z,71.75
2023-04-24T09:46:57.672Z,71.59
2023-04-24T09:49:31.051Z,71.52
2023-04-24T09:52:07.858Z,71.41
2023-04-24T09:54:37.958Z,71.24
2023-04-24T09:57:09.233Z,71.11
2023-04-24T09:59:45.280Z,71.10
2023-04-24T10:02:21.223Z,71.05
2023-04-24T10:05:01.647Z,71.17
2023-04-24T10:07:30.008Z,71.13
2023-04-24T10:09:58.740Z,71.21
2023-04-24T10:12:28.321Z,71.17
2023-04-24T10:14:57.454Z,71.13
2023-04-24T10:17:26.265Z,71.15
2023-04-24T10:19:55.349Z,71.37
2023-04-24T10:22:24.885Z,71.22
2023-04-24T10:24:53.298Z,71.29
2023-04-24T10:27:22.737Z,71.23
2023-04-24T10:29:54.450Z,71.17
2023-04-24T10:32:22.750Z,71.19
2023-04-24T10:34:50.903Z,71.00
2023-04-24T10:37:20.029Z,70.75
2023-04-24T10:39:52.636Z,70.60
2023-04-24T10:42:20.944Z,70.50
2023-04-24T10:44:50.307Z,70.37
2023-04-24T10:47:18.802Z,70.13
2023-04-24T10:49:46.923Z,69.91
2023-04-24T10:52:16.036Z,69.62
2023-04-24T10:54:48.427Z,69.44
2023-04-24T10:57:19.433Z,69.13
2023-04-24T10:59:49.705Z,68.80
2023-04-24T11:02:19.416Z,68.38
2023-04-24T11:04:52.327Z,68.09
2023-04-24T11:07:22.239Z,67.83
2023-04-24T11:09:59.875Z,67.53
2023-04-24T11:12:28.064Z,67.35
2023-04-24T11:15:00.534Z,67.04
2023-04-24T11:17:34.366Z,66.77
2023-04-24T11:20:19.038Z,66.44
2023-04-24T11:22:58.941Z,66.24
2023-04-24T11:25:32.260Z,66.11
2023-04-24T11:28:07.310Z,65.88
2023-04-24T11:30:36.377Z,65.48
2023-04-24T11:33:06.108Z,65.31
2023-04-24T11:35:41.786Z,64.91
2023-04-24T11:40:43.074Z,64.15
2023-04-24T11:43:12.222Z,63.86
2023-04-24T11:45:49.460Z,63.11
2023-04-24T11:48:23.644Z,62.98
2023-04-24T11:50:52.950Z,62.56
2023-04-24T11:53:22.796Z,62.24
2023-04-24T11:55:51.082Z,61.75
2023-04-24T11:58:23.287Z,61.36
2023-04-24T12:00:59.263Z,60.87
2023-04-24T12:03:28.559Z,60.89
2023-04-24T12:06:09.130Z,60.65
2023-04-24T12:08:38.570Z,60.57
2023-04-24T12:11:08.377Z,60.34
2023-04-24T12:13:37.535Z,60.15
2023-04-24T12:16:06.913Z,59.97
2023-04-24T12:18:35.677Z,59.80
2023-04-24T12:21:22.966Z,59.12
2023-04-24T12:23:52.142Z,58.67
2023-04-24T12:26:22.391Z,58.54
2023-04-24T12:28:50.808Z,58.49
2023-04-24T12:31:21.744Z,58.05
2023-04-24T12:33:50.022Z,57.48
2023-04-24T12:36:18.183Z,57.46
2023-04-24T12:38:47.636Z,57.47
2023-04-24T12:41:16.303Z,57.04
2023-04-24T12:43:54.801Z,57.59
2023-04-24T12:46:23.228Z,57.63
2023-04-24T12:48:51.458Z,57.34
2023-04-24T12:51:19.546Z,57.00
2023-04-24T12:53:47.712Z,55.35
2023-04-24T12:56:15.938Z,55.04
2023-04-24T12:58:44.075Z,54.70
2023-04-24T13:01:12.615Z,55.06
2023-04-24T13:03:41.147Z,54.46
2023-04-24T13:06:09.779Z,54.64
2023-04-24T13:08:37.932Z,53.92
2023-04-24T13:11:06.075Z,52.84
2023-04-24T13:13:34.275Z,52.15
2023-04-24T13:16:02.850Z,52.03
2023-04-24T13:18:31.146Z,50.93
2023-04-24T13:20:59.526Z,51.78
2023-04-24T13:23:27.640Z,50.46
2023-04-24T13:25:58.595Z,49.84
2023-04-24T13:28:26.985Z,49.73
2023-04-24T13:30:55.077Z,48.37
2023-04-24T13:33:23.238Z,47.86
2023-04-24T13:35:51.404Z,48.25
2023-04-24T13:38:22.689Z,48.09
2023-04-24T13:40:51.029Z,48.15
2023-04-24T13:43:19.260Z,47.99
2023-04-24T13:45:47.392Z,47.70
2023-04-24T13:48:18.980Z,47.81
2023-04-24T13:50:49.435Z,47.10
2023-04-24T13:53:17.919Z,47.27
2023-04-24T13:55:46.057Z,46.53
2023-04-24T13:58:14.223Z,46.24
2023-04-24T14:00:42.488Z,45.59
2023-04-24T14:03:10.784Z,46.12
2023-04-24T14:05:39.011Z,46.26
2023-04-24T14:08:07.417Z,45.67
2023-04-24T14:10:35.724Z,45.52
2023-04-24T14:13:04.515Z,45.15
2023-04-24T14:15:32.722Z,45.14
2023-04-24T14:18:01.028Z,44.60
2023-04-24T14:20:29.266Z,44.10
2023-04-24T14:23:00.165Z,44.01
2023-04-24T14:25:28.481Z,43.65
2023-04-24T14:27:56.910Z,43.59
2023-04-24T14:30:25.015Z,43.10
2023-04-24T14:32:53.282Z,42.56
2023-04-24T14:35:21.489Z,42.12
2023-04-24T14:37:50.278Z,41.64
2023-04-24T14:40:39.564Z,41.67
2023-04-24T14:43:06.484Z,40.77
2023-04-24T14:45:34.653Z,41.10
2023-04-24T14:48:02.773Z,40.53
2023-04-24T14:50:31.297Z,40.79
2023-04-24T14:52:59.659Z,39.89
2023-04-24T14:55:27.708Z,40.72
2023-04-24T14:57:56.577Z,39.84
2023-04-24T15:00:25.093Z,40.41
2023-04-24T15:02:53.453Z,40.18
2023-04-24T15:05:22.310Z,40.29
2023-04-24T15:07:51.162Z,40.64
2023-04-24T15:10:19.881Z,40.66
2023-04-24T15:12:48.075Z,40.99
2023-04-24T15:15:16.498Z,41.51
2023-04-24T15:17:44.673Z,42.20
2023-04-24T15:20:12.909Z,42.73
2023-04-24T15:22:41.067Z,43.49
2023-04-24T15:25:09.463Z,44.02
2023-04-24T15:27:42.349Z,44.54
2023-04-24T15:30:11.727Z,45.36
2023-04-24T15:32:40.640Z,45.75
2023-04-24T15:35:10.393Z,45.19
2023-04-24T15:37:39.631Z,45.23
2023-04-24T15:40:08.812Z,45.89
2023-04-24T15:42:37.191Z,46.46
2023-04-24T15:45:05.517Z,47.08
2023-04-24T15:47:34.087Z,47.73
2023-04-24T15:50:03.845Z,48.32
2023-04-24T15:52:31.938Z,48.74
2023-04-24T15:55:00.223Z,49.52
2023-04-24T15:57:28.314Z,50.31
2023-04-24T15:59:56.518Z,51.33
2023-04-24T16:02:24.988Z,51.44
2023-04-24T16:04:54.346Z,52.14
2023-04-24T16:07:22.685Z,52.64
2023-04-24T16:09:50.901Z,53.61
2023-04-24T16:12:19.795Z,54.38
2023-04-24T16:14:48.071Z,54.42
2023-04-24T16:17:16.285Z,54.67
2023-04-24T16:19:44.495Z,54.26
2023-04-24T16:22:12.624Z,54.34
2023-04-24T16:24:40.761Z,54.78
2023-04-24T16:27:09.118Z,54.52
2023-04-24T16:29:37.261Z,54.93
2023-04-24T16:32:05.397Z,55.46
2023-04-24T16:34:33.624Z,55.90
2023-04-24T16:37:01.978Z,56.14
2023-04-24T16:39:30.515Z,56.37
2023-04-24T16:41:59.981Z,56.62
2023-04-24T16:44:28.802Z,56.86
2023-04-24T16:46:57.385Z,57.14
2023-04-24T16:49:31.045Z,57.50
2023-04-24T16:51:59.754Z,57.78
2023-04-24T16:54:28.340Z,58.03
2023-04-24T16:56:57.006Z,58.28
2023-04-24T16:59:25.088Z,58.37
2023-04-24T17:01:53.198Z,58.48
2023-04-24T17:04:21.431Z,58.76
2023-04-24T17:06:49.645Z,59.04
2023-04-24T17:09:17.881Z,59.37
2023-04-24T17:11:46.144Z,59.32
2023-04-24T17:14:14.227Z,59.33
2023-04-24T17:16:42.447Z,59.54
2023-04-24T17:19:11.336Z,59.64
2023-04-24T17:21:39.521Z,59.59
2023-04-24T17:24:07.675Z,59.82
2023-04-24T17:26:35.886Z,59.74
2023-04-24T17:29:04.272Z,59.88
2023-04-24T17:31:32.435Z,59.93
2023-04-24T17:34:00.705Z,59.95
2023-04-24T17:36:28.815Z,60.08
2023-04-24T17:38:57.089Z,60.19
2023-04-24T17:41:25.401Z,60.27
2023-04-24T17:43:53.531Z,60.30
2023-04-24T17:46:21.720Z,60.40
2023-04-24T17:48:50.081Z,60.17
2023-04-24T17:51:18.159Z,60.11
2023-04-24T17:53:46.345Z,60.03
2023-04-24T17:56:14.719Z,59.99
2023-04-24T17:58:42.946Z,60.07
2023-04-24T18:01:11.122Z,59.99
2023-04-24T18:03:39.528Z,59.97
2023-04-24T18:06:07.818Z,60.13
2023-04-24T18:08:36.689Z,60.45
2023-04-24T18:11:05.151Z,60.74
2023-04-24T18:13:33.451Z,61.06
2023-04-24T18:16:01.693Z,61.48
2023-04-24T18:18:30.130Z,61.85
2023-04-24T18:20:58.506Z,62.69
2023-04-24T18:23:26.678Z,63.35
2023-04-24T18:25:54.783Z,63.38
2023-04-24T18:28:23.104Z,63.11
2023-04-24T18:30:51.696Z,62.86
2023-04-24T18:33:20.402Z,62.67
2023-04-24T18:35:48.576Z,62.58
2023-04-24T18:38:17.256Z,62.41
2023-04-24T18:40:45.583Z,62.17
2023-04-24T18:43:13.731Z,62.01
2023-04-24T18:45:41.854Z,61.90
2023-04-24T18:48:10.241Z,61.85
2023-04-24T18:50:40.748Z,61.78
2023-04-24T18:53:09.968Z,61.74
2023-04-24T18:55:38.452Z,61.65
2023-04-24T18:58:06.670Z,61.61
2023-04-24T19:00:34.894Z,61.65
2023-04-24T19:03:03.519Z,61.63
2023-04-24T19:05:31.963Z,61.56
2023-04-24T19:08:00.109Z,61.56
2023-04-24T19:10:29.176Z,61.53
2023-04-24T19:12:57.507Z,61.47
2023-04-24T19:15:25.960Z,61.45
2023-04-24T19:17:54.388Z,61.47
2023-04-24T19:20:22.753Z,61.50
2023-04-24T19:22:51.215Z,61.50
2023-04-24T19:25:20.107Z,61.47
2023-04-24T19:27:48.512Z,61.45
2023-04-24T19:30:16.676Z,61.46
2023-04-24T19:32:44.788Z,61.40
2023-04-24T19:35:13.124Z,61.41
2023-04-24T19:37:41.544Z,61.30
2023-04-24T19:40:09.921Z,61.14
2023-04-24T19:42:43.962Z,61.31
2023-04-24T19:45:13.519Z,61.58
2023-04-24T19:47:41.799Z,61.84
2023-04-24T19:50:10.272Z,62.15
2023-04-24T19:52:38.432Z,62.49
2023-04-24T19:55:08.444Z,62.82
2023-04-24T19:57:36.565Z,63.14
2023-04-24T20:00:05.301Z,63.86
2023-04-24T20:02:33.463Z,64.35
2023-04-24T20:05:02.119Z,64.77
2023-04-24T20:07:30.361Z,65.12
2023-04-24T20:09:58.683Z,65.29
2023-04-24T20:12:26.881Z,65.49
2023-04-24T20:14:55.380Z,65.51
2023-04-24T20:17:23.498Z,65.74
2023-04-24T20:19:51.812Z,65.82
2023-04-24T20:22:20.174Z,66.08
2023-04-24T20:24:48.396Z,65.97
2023-04-24T20:27:16.771Z,66.62
2023-04-24T20:29:45.065Z,67.43
2023-04-24T20:32:13.175Z,68.57
2023-04-24T20:34:41.598Z,68.69
2023-04-24T20:37:09.766Z,68.30
2023-04-24T20:39:38.925Z,69.58
2023-04-24T20:42:07.803Z,69.51
2023-04-24T20:44:35.976Z,69.82
2023-04-24T20:47:04.237Z,69.87
2023-04-24T20:49:32.512Z,70.20
2023-04-24T20:52:00.708Z,70.32
2023-04-24T20:54:29.002Z,70.33
2023-04-24T20:56:58.128Z,70.27
2023-04-24T20:59:26.464Z,69.93
2023-04-24T21:01:54.988Z,70.20
2023-04-24T21:04:23.224Z,70.12
2023-04-24T21:06:51.588Z,70.23
2023-04-24T21:09:19.737Z,70.33
2023-04-24T21:11:47.882Z,70.31
2023-04-24T21:14:16.160Z,70.26
2023-04-24T21:16:44.337Z,70.17
2023-04-24T21:19:12.689Z,70.02
2023-04-24T21:21:40.792Z,69.79
2023-04-24T21:24:08.912Z,69.69
2023-04-24T21:26:37.277Z,69.60
2023-04-24T21:29:05.580Z,69.43
2023-04-24T21:31:33.695Z,69.22
2023-04-24T21:34:01.726Z,69.06
2023-04-24T21:36:32.354Z,68.95
2023-04-24T21:39:01.068Z,68.80
2023-04-24T21:41:29.240Z,68.65
2023-04-24T21:43:57.493Z,68.60
2023-04-24T21:46:26.707Z,68.66
2023-04-24T21:48:54.942Z,68.66
2023-04-24T21:51:23.161Z,68.37
2023-04-24T21:53:51.757Z,68.20
2023-04-24T21:56:20.602Z,67.96
2023-04-24T21:58:48.871Z,67.76
2023-04-24T22:01:17.231Z,67.78
2023-04-24T22:03:45.447Z,67.95
2023-04-24T22:06:14.786Z,68.04
2023-04-24T22:08:47.399Z,67.85
2023-04-24T22:11:25.903Z,68.00
2023-04-24T22:13:55.532Z,68.28
2023-04-24T22:16:24.497Z,68.55
2023-04-24T22:18:55.726Z,68.30
2023-04-24T22:21:23.928Z,68.42
2023-04-24T22:23:52.383Z,68.54
2023-04-24T22:26:21.076Z,68.41
2023-04-24T22:28:49.417Z,68.64
2023-04-24T22:31:17.620Z,68.84
2023-04-24T22:33:49.385Z,68.84
2023-04-24T22:36:17.711Z,68.77
2023-04-24T22:38:45.868Z,68.74
2023-04-24T22:41:14.273Z,68.58
2023-04-24T22:43:42.601Z,68.48
2023-04-24T22:46:10.890Z,68.48
2023-04-24T22:48:39.012Z,68.40
2023-04-24T22:51:07.118Z,68.32
2023-04-24T22:53:36.341Z,68.44
2023-04-24T22:56:04.746Z,68.51
2023-04-24T22:58:33.112Z,68.41
2023-04-24T23:01:01.553Z,67.81
2023-04-24T23:03:29.841Z,67.62
2023-04-24T23:05:58.030Z,67.54
2023-04-24T23:08:26.278Z,67.71
2023-04-24T23:10:54.373Z,67.81
2023-04-24T23:13:22.479Z,67.88
2023-04-24T23:15:51.937Z,67.80
2023-04-24T23:18:21.611Z,67.67
2023-04-24T23:20:49.788Z,67.52
2023-04-24T23:23:18.180Z,67.38
2023-04-24T23:25:46.220Z,67.22
2023-04-24T23:28:14.621Z,67.06
2023-04-24T23:30:42.902Z,66.91
2023-04-24T23:33:11.955Z,66.76
2023-04-24T23:35:40.621Z,66.64
2023-04-24T23:38:08.932Z,66.79
2023-04-24T23:40:37.105Z,66.72
2023-04-24T23:43:08.056Z,66.65
2023-04-24T23:45:37.179Z,66.63
2023-04-24T23:48:05.949Z,66.63
2023-04-24T23:50:34.590Z,66.57
2023-04-24T23:53:02.823Z,66.44
2023-04-24T23:55:30.958Z,66.21
2023-04-24T23:57:59.265Z,66.11
